Terminal Aerodrome Forecast
Issued by NWS

Home | Current Version | Previous Version | Text Only | Print | Product List | Glossary On
Versions: 1 2 3 4 5 6 7 8 9 10 11 12 13 14 15 16 17 18 19 20 21 22 23 24 25 26 27 28 29 30
146
FTUS41 KBUF 290249 AAA
TAFIAG
TAF AMD
KIAG 290249Z 2903/2924 06008KT P6SM BKN130 OVC200
     FM291700 06012KT P6SM OVC050
     FM292000 06011KT P6SM VCSH OVC035=

USA.gov is the U.S. government's official web portal to all federal, state and local government web resources and services.